Hatch, Utah
Current Conditions -  °F | °C
As of 2:53 PM on Wednesday 28 Jan 2015 (Local Time) from KBCE Reporting Station
Clear Clear  
Wind Chill: 47°   Ceiling: Unl
Heat Index: 47°   Visibility: NA
Dew Point: 25°   Wind: 0mph
Humidity: 42%   Direction: NA
Pressure: 30.25"   Gusts: NA
Location:  37.65°N, 112.43°W
Report Text: KBCE 282153Z AUTO 00000KT CLR 08/M04 A3025 RMK AO2 SLP202 T00831039 $
Loading
Personal Weather Stations






























Interactive Weather Map New forecast layout! Learn more

10-Day Weather Forecast

Advertisements
Track Severe Weather on mobile